sensor_id;sensor_type;location;lat;lon;timestamp;P1;durP1;ratioP1;P2;durP2;ratioP2
62832;SDS011;48891;49.220;6.920;2023-09-19T00:00:41;20.38;;;16.75;;
62832;SDS011;48891;49.220;6.920;2023-09-19T00:03:06;20.27;;;17.07;;
62832;SDS011;48891;49.220;6.920;2023-09-19T00:05:34;21.00;;;17.50;;
62832;SDS011;48891;49.220;6.920;2023-09-19T00:08:01;18.40;;;15.43;;
62832;SDS011;48891;49.220;6.920;2023-09-19T00:10:27;20.25;;;17.30;;
62832;SDS011;48891;49.220;6.920;2023-09-19T00:12:53;19.70;;;15.75;;
62832;SDS011;48891;49.220;6.920;2023-09-19T00:15:19;20.25;;;16.70;;
62832;SDS011;48891;49.220;6.920;2023-09-19T00:17:44;19.90;;;16.57;;
62832;SDS011;48891;49.220;6.920;2023-09-19T00:20:10;18.27;;;16.02;;
62832;SDS011;48891;49.220;6.920;2023-09-19T00:22:38;20.65;;;16.63;;
62832;SDS011;48891;49.220;6.920;2023-09-19T00:25:04;21.63;;;16.58;;
62832;SDS011;48891;49.220;6.920;2023-09-19T00:27:30;19.42;;;16.15;;
62832;SDS011;48891;49.220;6.920;2023-09-19T00:29:55;18.40;;;15.17;;
62832;SDS011;48891;49.220;6.920;2023-09-19T00:32:20;19.30;;;15.97;;
62832;SDS011;48891;49.220;6.920;2023-09-19T00:34:45;19.07;;;15.87;;
62832;SDS011;48891;49.220;6.920;2023-09-19T00:37:10;19.53;;;15.97;;
62832;SDS011;48891;49.220;6.920;2023-09-19T00:39:36;20.57;;;16.23;;
62832;SDS011;48891;49.220;6.920;2023-09-19T00:42:01;19.17;;;15.30;;
62832;SDS011;48891;49.220;6.920;2023-09-19T00:44:26;18.05;;;15.23;;
62832;SDS011;48891;49.220;6.920;2023-09-19T00:46:52;17.70;;;14.47;;
62832;SDS011;48891;49.220;6.920;2023-09-19T00:49:18;18.45;;;14.57;;
62832;SDS011;48891;49.220;6.920;2023-09-19T00:51:43;17.35;;;14.27;;
62832;SDS011;48891;49.220;6.920;2023-09-19T00:54:09;18.65;;;14.68;;
62832;SDS011;48891;49.220;6.920;2023-09-19T00:56:34;18.05;;;14.02;;
62832;SDS011;48891;49.220;6.920;2023-09-19T00:59:00;19.63;;;16.00;;
62832;SDS011;48891;49.220;6.920;2023-09-19T01:01:25;17.52;;;13.90;;
62832;SDS011;48891;49.220;6.920;2023-09-19T01:03:50;17.92;;;14.52;;
62832;SDS011;48891;49.220;6.920;2023-09-19T01:06:17;15.60;;;13.48;;
62832;SDS011;48891;49.220;6.920;2023-09-19T01:08:43;17.23;;;14.18;;
62832;SDS011;48891;49.220;6.920;2023-09-19T01:11:16;17.87;;;14.70;;
62832;SDS011;48891;49.220;6.920;2023-09-19T01:16:42;17.13;;;14.10;;
62832;SDS011;48891;49.220;6.920;2023-09-19T01:19:26;14.75;;;12.40;;
62832;SDS011;48891;49.220;6.920;2023-09-19T01:25:20;16.70;;;13.43;;
62832;SDS011;48891;49.220;6.920;2023-09-19T01:30:45;14.90;;;12.48;;
62832;SDS011;48891;49.220;6.920;2023-09-19T01:33:12;15.70;;;12.98;;
62832;SDS011;48891;49.220;6.920;2023-09-19T01:35:38;14.73;;;13.07;;
62832;SDS011;48891;49.220;6.920;2023-09-19T01:38:03;14.70;;;12.32;;
62832;SDS011;48891;49.220;6.920;2023-09-19T01:40:28;17.00;;;12.23;;
62832;SDS011;48891;49.220;6.920;2023-09-19T01:42:58;16.50;;;13.32;;
62832;SDS011;48891;49.220;6.920;2023-09-19T01:45:37;14.32;;;11.65;;
62832;SDS011;48891;49.220;6.920;2023-09-19T01:50:59;16.58;;;12.50;;
62832;SDS011;48891;49.220;6.920;2023-09-19T01:53:27;16.13;;;12.07;;
62832;SDS011;48891;49.220;6.920;2023-09-19T01:55:58;13.73;;;12.15;;
62832;SDS011;48891;49.220;6.920;2023-09-19T01:58:48;16.58;;;12.93;;
62832;SDS011;48891;49.220;6.920;2023-09-19T02:01:15;16.52;;;12.50;;
62832;SDS011;48891;49.220;6.920;2023-09-19T02:03:44;14.95;;;11.73;;
62832;SDS011;48891;49.220;6.920;2023-09-19T02:06:15;14.55;;;11.93;;
62832;SDS011;48891;49.220;6.920;2023-09-19T02:08:41;14.43;;;11.57;;
62832;SDS011;48891;49.220;6.920;2023-09-19T02:11:06;14.98;;;11.65;;
62832;SDS011;48891;49.220;6.920;2023-09-19T02:13:32;14.03;;;11.13;;
62832;SDS011;48891;49.220;6.920;2023-09-19T02:15:57;14.85;;;12.00;;
62832;SDS011;48891;49.220;6.920;2023-09-19T02:18:24;13.70;;;11.02;;
62832;SDS011;48891;49.220;6.920;2023-09-19T02:20:49;13.90;;;11.73;;
62832;SDS011;48891;49.220;6.920;2023-09-19T02:23:14;13.15;;;10.45;;
62832;SDS011;48891;49.220;6.920;2023-09-19T02:25:40;12.48;;;10.80;;
62832;SDS011;48891;49.220;6.920;2023-09-19T02:28:06;13.23;;;10.60;;
62832;SDS011;48891;49.220;6.920;2023-09-19T02:30:31;12.43;;;10.70;;
62832;SDS011;48891;49.220;6.920;2023-09-19T02:32:57;13.60;;;11.27;;
62832;SDS011;48891;49.220;6.920;2023-09-19T02:35:22;14.33;;;10.40;;
62832;SDS011;48891;49.220;6.920;2023-09-19T02:37:48;14.02;;;10.90;;
62832;SDS011;48891;49.220;6.920;2023-09-19T02:40:13;13.20;;;10.45;;
62832;SDS011;48891;49.220;6.920;2023-09-19T02:42:39;13.35;;;10.43;;
62832;SDS011;48891;49.220;6.920;2023-09-19T02:45:07;12.50;;;10.15;;
62832;SDS011;48891;49.220;6.920;2023-09-19T02:47:33;13.27;;;10.43;;
62832;SDS011;48891;49.220;6.920;2023-09-19T02:49:58;12.60;;;10.40;;
62832;SDS011;48891;49.220;6.920;2023-09-19T02:52:24;13.43;;;10.77;;
62832;SDS011;48891;49.220;6.920;2023-09-19T02:54:49;12.07;;;9.60;;
62832;SDS011;48891;49.220;6.920;2023-09-19T02:57:14;12.90;;;10.35;;
62832;SDS011;48891;49.220;6.920;2023-09-19T02:59:39;12.53;;;10.27;;
62832;SDS011;48891;49.220;6.920;2023-09-19T03:02:05;11.37;;;9.63;;
62832;SDS011;48891;49.220;6.920;2023-09-19T03:04:30;12.20;;;9.80;;
62832;SDS011;48891;49.220;6.920;2023-09-19T03:06:55;11.40;;;8.88;;
62832;SDS011;48891;49.220;6.920;2023-09-19T03:09:21;12.57;;;9.88;;
62832;SDS011;48891;49.220;6.920;2023-09-19T03:11:46;12.20;;;9.73;;
62832;SDS011;48891;49.220;6.920;2023-09-19T03:14:12;11.50;;;8.80;;
62832;SDS011;48891;49.220;6.920;2023-09-19T03:16:37;11.90;;;9.45;;
62832;SDS011;48891;49.220;6.920;2023-09-19T03:19:02;13.07;;;9.63;;
62832;SDS011;48891;49.220;6.920;2023-09-19T03:21:28;11.40;;;8.80;;
62832;SDS011;48891;49.220;6.920;2023-09-19T03:23:53;12.57;;;9.70;;
62832;SDS011;48891;49.220;6.920;2023-09-19T03:26:18;12.35;;;9.32;;
62832;SDS011;48891;49.220;6.920;2023-09-19T03:28:43;10.73;;;8.77;;
62832;SDS011;48891;49.220;6.920;2023-09-19T03:31:09;12.02;;;8.90;;
62832;SDS011;48891;49.220;6.920;2023-09-19T03:33:34;11.65;;;9.02;;
62832;SDS011;48891;49.220;6.920;2023-09-19T03:36:00;10.57;;;8.65;;
62832;SDS011;48891;49.220;6.920;2023-09-19T03:38:27;11.13;;;8.57;;
62832;SDS011;48891;49.220;6.920;2023-09-19T03:40:52;12.77;;;9.30;;
62832;SDS011;48891;49.220;6.920;2023-09-19T03:43:17;10.55;;;8.55;;
62832;SDS011;48891;49.220;6.920;2023-09-19T03:45:43;11.73;;;8.95;;
62832;SDS011;48891;49.220;6.920;2023-09-19T03:48:09;10.05;;;8.90;;
62832;SDS011;48891;49.220;6.920;2023-09-19T03:50:34;10.25;;;8.02;;
62832;SDS011;48891;49.220;6.920;2023-09-19T03:53:00;10.75;;;8.35;;
62832;SDS011;48891;49.220;6.920;2023-09-19T03:55:25;10.45;;;8.18;;
62832;SDS011;48891;49.220;6.920;2023-09-19T03:57:50;11.23;;;8.50;;
62832;SDS011;48891;49.220;6.920;2023-09-19T04:00:16;11.30;;;8.88;;
62832;SDS011;48891;49.220;6.920;2023-09-19T04:02:41;11.02;;;8.00;;
62832;SDS011;48891;49.220;6.920;2023-09-19T04:05:06;9.90;;;8.03;;
62832;SDS011;48891;49.220;6.920;2023-09-19T04:07:32;10.38;;;7.72;;
62832;SDS011;48891;49.220;6.920;2023-09-19T04:09:57;10.10;;;7.80;;
62832;SDS011;48891;49.220;6.920;2023-09-19T04:12:22;8.97;;;7.30;;
62832;SDS011;48891;49.220;6.920;2023-09-19T04:14:47;8.80;;;7.13;;
62832;SDS011;48891;49.220;6.920;2023-09-19T04:17:13;9.82;;;7.40;;
62832;SDS011;48891;49.220;6.920;2023-09-19T04:19:38;8.75;;;7.30;;
62832;SDS011;48891;49.220;6.920;2023-09-19T04:22:04;11.02;;;7.40;;
62832;SDS011;48891;49.220;6.920;2023-09-19T04:24:29;9.37;;;7.27;;
62832;SDS011;48891;49.220;6.920;2023-09-19T04:26:54;10.02;;;7.45;;
62832;SDS011;48891;49.220;6.920;2023-09-19T04:29:20;9.10;;;8.02;;
62832;SDS011;48891;49.220;6.920;2023-09-19T04:31:45;8.70;;;6.47;;
62832;SDS011;48891;49.220;6.920;2023-09-19T04:34:11;9.65;;;7.53;;
62832;SDS011;48891;49.220;6.920;2023-09-19T04:36:37;8.63;;;7.07;;
62832;SDS011;48891;49.220;6.920;2023-09-19T04:39:02;10.37;;;8.13;;
62832;SDS011;48891;49.220;6.920;2023-09-19T04:41:28;9.88;;;7.90;;
62832;SDS011;48891;49.220;6.920;2023-09-19T04:43:53;9.13;;;7.23;;
62832;SDS011;48891;49.220;6.920;2023-09-19T04:46:18;9.23;;;7.03;;
62832;SDS011;48891;49.220;6.920;2023-09-19T04:48:44;9.45;;;7.00;;
62832;SDS011;48891;49.220;6.920;2023-09-19T04:51:09;8.97;;;6.83;;
62832;SDS011;48891;49.220;6.920;2023-09-19T04:53:34;10.70;;;7.37;;
62832;SDS011;48891;49.220;6.920;2023-09-19T04:56:00;10.23;;;7.45;;
62832;SDS011;48891;49.220;6.920;2023-09-19T04:58:25;9.27;;;6.53;;
62832;SDS011;48891;49.220;6.920;2023-09-19T05:00:50;8.77;;;6.90;;
62832;SDS011;48891;49.220;6.920;2023-09-19T05:03:15;8.50;;;6.60;;
62832;SDS011;48891;49.220;6.920;2023-09-19T05:05:41;10.10;;;6.57;;
62832;SDS011;48891;49.220;6.920;2023-09-19T05:08:06;7.90;;;6.40;;
62832;SDS011;48891;49.220;6.920;2023-09-19T05:10:34;9.27;;;6.78;;
62832;SDS011;48891;49.220;6.920;2023-09-19T05:12:59;8.35;;;6.45;;
62832;SDS011;48891;49.220;6.920;2023-09-19T05:15:24;7.80;;;6.33;;
62832;SDS011;48891;49.220;6.920;2023-09-19T05:17:50;8.85;;;6.50;;
62832;SDS011;48891;49.220;6.920;2023-09-19T05:20:17;7.75;;;6.38;;
62832;SDS011;48891;49.220;6.920;2023-09-19T05:22:42;8.88;;;6.35;;
62832;SDS011;48891;49.220;6.920;2023-09-19T05:25:07;9.38;;;7.22;;
62832;SDS011;48891;49.220;6.920;2023-09-19T05:27:33;10.63;;;7.13;;
62832;SDS011;48891;49.220;6.920;2023-09-19T05:29:59;8.00;;;6.10;;
62832;SDS011;48891;49.220;6.920;2023-09-19T05:32:24;8.45;;;6.03;;
62832;SDS011;48891;49.220;6.920;2023-09-19T05:34:49;8.30;;;6.47;;
62832;SDS011;48891;49.220;6.920;2023-09-19T05:37:15;8.03;;;6.20;;
62832;SDS011;48891;49.220;6.920;2023-09-19T05:39:40;7.93;;;6.20;;
62832;SDS011;48891;49.220;6.920;2023-09-19T05:42:05;9.03;;;6.40;;
62832;SDS011;48891;49.220;6.920;2023-09-19T05:44:30;8.52;;;6.55;;
62832;SDS011;48891;49.220;6.920;2023-09-19T05:46:56;9.50;;;6.43;;
62832;SDS011;48891;49.220;6.920;2023-09-19T05:49:21;8.30;;;6.50;;
62832;SDS011;48891;49.220;6.920;2023-09-19T05:51:46;8.63;;;5.93;;
62832;SDS011;48891;49.220;6.920;2023-09-19T05:54:11;9.37;;;6.57;;
62832;SDS011;48891;49.220;6.920;2023-09-19T05:56:36;9.05;;;6.82;;
62832;SDS011;48891;49.220;6.920;2023-09-19T05:59:02;8.27;;;6.20;;
62832;SDS011;48891;49.220;6.920;2023-09-19T06:01:27;8.60;;;6.82;;
62832;SDS011;48891;49.220;6.920;2023-09-19T06:03:52;9.50;;;6.80;;
62832;SDS011;48891;49.220;6.920;2023-09-19T06:06:18;9.68;;;7.45;;
62832;SDS011;48891;49.220;6.920;2023-09-19T06:08:43;9.13;;;6.85;;
62832;SDS011;48891;49.220;6.920;2023-09-19T06:11:08;10.18;;;7.13;;
62832;SDS011;48891;49.220;6.920;2023-09-19T06:13:34;8.67;;;6.80;;
62832;SDS011;48891;49.220;6.920;2023-09-19T06:15:59;8.77;;;7.03;;
62832;SDS011;48891;49.220;6.920;2023-09-19T06:18:24;9.83;;;7.13;;
62832;SDS011;48891;49.220;6.920;2023-09-19T06:20:49;7.88;;;6.53;;
62832;SDS011;48891;49.220;6.920;2023-09-19T06:23:15;9.13;;;7.80;;
62832;SDS011;48891;49.220;6.920;2023-09-19T06:25:40;9.52;;;8.10;;
62832;SDS011;48891;49.220;6.920;2023-09-19T06:28:05;10.68;;;7.32;;
62832;SDS011;48891;49.220;6.920;2023-09-19T06:30:31;10.65;;;8.90;;
62832;SDS011;48891;49.220;6.920;2023-09-19T06:32:57;10.27;;;9.10;;
62832;SDS011;48891;49.220;6.920;2023-09-19T06:35:23;11.35;;;8.80;;
62832;SDS011;48891;49.220;6.920;2023-09-19T06:37:49;10.73;;;8.32;;
62832;SDS011;48891;49.220;6.920;2023-09-19T06:40:14;11.65;;;9.05;;
62832;SDS011;48891;49.220;6.920;2023-09-19T06:42:43;11.25;;;8.93;;
62832;SDS011;48891;49.220;6.920;2023-09-19T06:45:10;10.48;;;8.15;;
62832;SDS011;48891;49.220;6.920;2023-09-19T06:47:35;12.75;;;9.05;;
62832;SDS011;48891;49.220;6.920;2023-09-19T06:50:00;11.32;;;9.05;;
62832;SDS011;48891;49.220;6.920;2023-09-19T06:52:26;12.75;;;10.02;;
62832;SDS011;48891;49.220;6.920;2023-09-19T06:54:51;11.52;;;9.68;;
62832;SDS011;48891;49.220;6.920;2023-09-19T06:57:16;11.87;;;9.33;;
62832;SDS011;48891;49.220;6.920;2023-09-19T06:59:41;11.93;;;9.57;;
62832;SDS011;48891;49.220;6.920;2023-09-19T07:02:07;12.00;;;9.87;;
62832;SDS011;48891;49.220;6.920;2023-09-19T07:04:32;13.10;;;9.48;;
62832;SDS011;48891;49.220;6.920;2023-09-19T07:06:57;13.73;;;9.97;;
62832;SDS011;48891;49.220;6.920;2023-09-19T07:09:22;11.57;;;9.70;;
62832;SDS011;48891;49.220;6.920;2023-09-19T07:11:47;11.20;;;9.20;;
62832;SDS011;48891;49.220;6.920;2023-09-19T07:14:13;12.73;;;10.02;;
62832;SDS011;48891;49.220;6.920;2023-09-19T07:16:38;12.37;;;9.67;;
62832;SDS011;48891;49.220;6.920;2023-09-19T07:19:03;12.18;;;10.18;;
62832;SDS011;48891;49.220;6.920;2023-09-19T07:21:29;11.82;;;10.02;;
62832;SDS011;48891;49.220;6.920;2023-09-19T07:23:54;12.53;;;10.43;;
62832;SDS011;48891;49.220;6.920;2023-09-19T07:26:19;11.83;;;10.00;;
62832;SDS011;48891;49.220;6.920;2023-09-19T07:28:44;12.87;;;10.20;;
62832;SDS011;48891;49.220;6.920;2023-09-19T07:31:10;11.88;;;9.93;;
62832;SDS011;48891;49.220;6.920;2023-09-19T07:33:36;12.87;;;9.80;;
62832;SDS011;48891;49.220;6.920;2023-09-19T07:36:01;11.95;;;9.80;;
62832;SDS011;48891;49.220;6.920;2023-09-19T07:38:27;11.95;;;9.82;;
62832;SDS011;48891;49.220;6.920;2023-09-19T07:40:52;11.68;;;9.50;;
62832;SDS011;48891;49.220;6.920;2023-09-19T07:43:18;12.80;;;10.33;;
62832;SDS011;48891;49.220;6.920;2023-09-19T07:45:43;12.25;;;9.85;;
62832;SDS011;48891;49.220;6.920;2023-09-19T07:48:09;13.88;;;11.27;;
62832;SDS011;48891;49.220;6.920;2023-09-19T07:50:34;11.52;;;9.68;;
62832;SDS011;48891;49.220;6.920;2023-09-19T07:52:59;11.63;;;9.88;;
62832;SDS011;48891;49.220;6.920;2023-09-19T07:55:24;15.07;;;11.00;;
62832;SDS011;48891;49.220;6.920;2023-09-19T07:57:50;12.33;;;9.93;;
62832;SDS011;48891;49.220;6.920;2023-09-19T08:00:15;12.63;;;9.90;;
62832;SDS011;48891;49.220;6.920;2023-09-19T08:02:41;13.18;;;9.85;;
62832;SDS011;48891;49.220;6.920;2023-09-19T08:05:08;12.05;;;9.98;;
62832;SDS011;48891;49.220;6.920;2023-09-19T08:07:34;12.65;;;9.98;;
62832;SDS011;48891;49.220;6.920;2023-09-19T08:09:59;13.47;;;10.63;;
62832;SDS011;48891;49.220;6.920;2023-09-19T08:12:24;12.50;;;9.50;;
62832;SDS011;48891;49.220;6.920;2023-09-19T08:14:50;12.02;;;9.52;;
62832;SDS011;48891;49.220;6.920;2023-09-19T08:17:15;12.45;;;9.95;;
62832;SDS011;48891;49.220;6.920;2023-09-19T08:19:40;11.67;;;9.57;;
62832;SDS011;48891;49.220;6.920;2023-09-19T08:22:05;10.67;;;9.27;;
62832;SDS011;48891;49.220;6.920;2023-09-19T08:24:30;11.87;;;9.93;;
62832;SDS011;48891;49.220;6.920;2023-09-19T08:26:56;12.35;;;9.88;;
62832;SDS011;48891;49.220;6.920;2023-09-19T08:29:23;13.18;;;9.80;;
62832;SDS011;48891;49.220;6.920;2023-09-19T08:31:49;11.88;;;9.38;;
62832;SDS011;48891;49.220;6.920;2023-09-19T08:34:15;11.70;;;9.23;;
62832;SDS011;48891;49.220;6.920;2023-09-19T08:36:40;11.20;;;9.43;;
62832;SDS011;48891;49.220;6.920;2023-09-19T08:39:05;10.70;;;9.18;;
62832;SDS011;48891;49.220;6.920;2023-09-19T08:41:30;11.17;;;9.23;;
62832;SDS011;48891;49.220;6.920;2023-09-19T08:43:58;11.63;;;9.07;;
62832;SDS011;48891;49.220;6.920;2023-09-19T08:48:58;11.18;;;8.80;;
62832;SDS011;48891;49.220;6.920;2023-09-19T08:51:45;11.65;;;9.10;;
62832;SDS011;48891;49.220;6.920;2023-09-19T08:54:21;11.98;;;9.52;;
62832;SDS011;48891;49.220;6.920;2023-09-19T08:59:15;12.43;;;9.48;;
62832;SDS011;48891;49.220;6.920;2023-09-19T09:01:41;10.27;;;8.68;;
62832;SDS011;48891;49.220;6.920;2023-09-19T09:04:09;10.93;;;8.82;;
62832;SDS011;48891;49.220;6.920;2023-09-19T09:06:35;10.10;;;8.65;;
62832;SDS011;48891;49.220;6.920;2023-09-19T09:09:00;10.15;;;8.30;;
62832;SDS011;48891;49.220;6.920;2023-09-19T09:11:26;11.45;;;9.98;;
62832;SDS011;48891;49.220;6.920;2023-09-19T09:13:51;10.30;;;8.13;;
62832;SDS011;48891;49.220;6.920;2023-09-19T09:16:17;10.47;;;8.00;;
62832;SDS011;48891;49.220;6.920;2023-09-19T09:18:42;10.93;;;8.85;;
62832;SDS011;48891;49.220;6.920;2023-09-19T09:21:08;11.40;;;8.70;;
62832;SDS011;48891;49.220;6.920;2023-09-19T09:23:33;10.00;;;8.17;;
62832;SDS011;48891;49.220;6.920;2023-09-19T09:25:59;11.70;;;9.10;;
62832;SDS011;48891;49.220;6.920;2023-09-19T09:28:25;9.50;;;7.80;;
62832;SDS011;48891;49.220;6.920;2023-09-19T09:30:52;11.03;;;8.80;;
62832;SDS011;48891;49.220;6.920;2023-09-19T09:33:17;11.23;;;8.70;;
62832;SDS011;48891;49.220;6.920;2023-09-19T09:35:52;9.75;;;7.78;;
62832;SDS011;48891;49.220;6.920;2023-09-19T09:38:18;11.38;;;7.93;;
62832;SDS011;48891;49.220;6.920;2023-09-19T09:40:49;9.65;;;7.90;;
62832;SDS011;48891;49.220;6.920;2023-09-19T09:43:28;10.82;;;7.85;;
62832;SDS011;48891;49.220;6.920;2023-09-19T09:46:17;11.07;;;8.23;;
62832;SDS011;48891;49.220;6.920;2023-09-19T09:48:42;9.60;;;7.63;;
62832;SDS011;48891;49.220;6.920;2023-09-19T09:51:07;11.15;;;8.02;;
62832;SDS011;48891;49.220;6.920;2023-09-19T09:53:32;10.95;;;8.18;;
62832;SDS011;48891;49.220;6.920;2023-09-19T09:56:02;9.43;;;7.38;;
62832;SDS011;48891;49.220;6.920;2023-09-19T09:58:37;9.50;;;7.60;;
62832;SDS011;48891;49.220;6.920;2023-09-19T10:01:14;10.30;;;8.20;;
62832;SDS011;48891;49.220;6.920;2023-09-19T10:03:39;10.25;;;7.47;;
62832;SDS011;48891;49.220;6.920;2023-09-19T10:06:08;11.35;;;8.10;;
62832;SDS011;48891;49.220;6.920;2023-09-19T10:08:35;8.60;;;7.60;;
62832;SDS011;48891;49.220;6.920;2023-09-19T10:11:00;9.27;;;7.80;;
62832;SDS011;48891;49.220;6.920;2023-09-19T10:13:26;9.75;;;7.88;;
62832;SDS011;48891;49.220;6.920;2023-09-19T10:15:54;9.88;;;7.10;;
62832;SDS011;48891;49.220;6.920;2023-09-19T10:18:24;9.77;;;7.65;;
62832;SDS011;48891;49.220;6.920;2023-09-19T10:20:51;9.95;;;7.63;;
62832;SDS011;48891;49.220;6.920;2023-09-19T10:23:17;10.02;;;7.95;;
62832;SDS011;48891;49.220;6.920;2023-09-19T10:25:44;9.50;;;7.30;;
62832;SDS011;48891;49.220;6.920;2023-09-19T10:28:10;10.20;;;7.27;;
62832;SDS011;48891;49.220;6.920;2023-09-19T10:30:43;9.30;;;7.47;;
62832;SDS011;48891;49.220;6.920;2023-09-19T10:33:09;9.73;;;7.22;;
62832;SDS011;48891;49.220;6.920;2023-09-19T10:35:37;8.65;;;6.72;;
62832;SDS011;48891;49.220;6.920;2023-09-19T10:38:04;8.48;;;6.90;;
62832;SDS011;48891;49.220;6.920;2023-09-19T10:40:32;9.00;;;7.43;;
62832;SDS011;48891;49.220;6.920;2023-09-19T10:43:03;9.60;;;7.43;;
62832;SDS011;48891;49.220;6.920;2023-09-19T10:45:30;9.50;;;6.78;;
62832;SDS011;48891;49.220;6.920;2023-09-19T10:47:59;8.82;;;7.60;;
62832;SDS011;48891;49.220;6.920;2023-09-19T10:50:26;8.32;;;6.50;;
62832;SDS011;48891;49.220;6.920;2023-09-19T10:52:56;8.63;;;6.60;;
62832;SDS011;48891;49.220;6.920;2023-09-19T10:55:26;8.63;;;6.78;;
62832;SDS011;48891;49.220;6.920;2023-09-19T10:57:53;9.40;;;6.93;;
62832;SDS011;48891;49.220;6.920;2023-09-19T11:00:18;8.63;;;6.72;;
62832;SDS011;48891;49.220;6.920;2023-09-19T11:02:45;9.75;;;6.75;;
62832;SDS011;48891;49.220;6.920;2023-09-19T11:05:35;8.65;;;6.25;;
62832;SDS011;48891;49.220;6.920;2023-09-19T11:08:01;9.23;;;6.63;;
62832;SDS011;48891;49.220;6.920;2023-09-19T11:10:43;8.50;;;6.78;;
62832;SDS011;48891;49.220;6.920;2023-09-19T11:13:28;8.25;;;6.40;;
62832;SDS011;48891;49.220;6.920;2023-09-19T11:26:40;8.55;;;6.35;;
62832;SDS011;48891;49.220;6.920;2023-09-19T11:31:53;8.15;;;6.00;;
62832;SDS011;48891;49.220;6.920;2023-09-19T11:34:37;7.28;;;5.75;;
62832;SDS011;48891;49.220;6.920;2023-09-19T11:37:18;8.55;;;5.85;;
62832;SDS011;48891;49.220;6.920;2023-09-19T11:40:09;7.20;;;5.80;;
62832;SDS011;48891;49.220;6.920;2023-09-19T11:45:06;8.23;;;6.22;;
62832;SDS011;48891;49.220;6.920;2023-09-19T11:47:31;7.32;;;5.78;;
62832;SDS011;48891;49.220;6.920;2023-09-19T11:49:58;7.82;;;5.35;;
62832;SDS011;48891;49.220;6.920;2023-09-19T11:52:26;7.90;;;6.10;;
62832;SDS011;48891;49.220;6.920;2023-09-19T11:54:55;7.32;;;5.95;;
62832;SDS011;48891;49.220;6.920;2023-09-19T11:57:22;8.57;;;6.13;;
62832;SDS011;48891;49.220;6.920;2023-09-19T11:59:48;6.93;;;5.32;;
62832;SDS011;48891;49.220;6.920;2023-09-19T12:02:14;7.40;;;5.43;;
62832;SDS011;48891;49.220;6.920;2023-09-19T12:04:53;6.82;;;5.45;;
62832;SDS011;48891;49.220;6.920;2023-09-19T12:07:18;6.97;;;5.05;;
62832;SDS011;48891;49.220;6.920;2023-09-19T12:09:45;7.40;;;5.85;;
62832;SDS011;48891;49.220;6.920;2023-09-19T12:12:18;6.85;;;5.57;;
62832;SDS011;48891;49.220;6.920;2023-09-19T12:14:50;7.32;;;5.65;;
62832;SDS011;48891;49.220;6.920;2023-09-19T12:17:19;7.43;;;5.63;;
62832;SDS011;48891;49.220;6.920;2023-09-19T12:19:55;7.85;;;5.70;;
62832;SDS011;48891;49.220;6.920;2023-09-19T12:22:21;6.55;;;5.35;;
62832;SDS011;48891;49.220;6.920;2023-09-19T12:24:46;6.55;;;5.20;;
62832;SDS011;48891;49.220;6.920;2023-09-19T12:27:12;6.70;;;5.00;;
62832;SDS011;48891;49.220;6.920;2023-09-19T12:29:47;6.47;;;5.18;;
62832;SDS011;48891;49.220;6.920;2023-09-19T12:32:13;7.90;;;5.50;;
62832;SDS011;48891;49.220;6.920;2023-09-19T12:34:39;7.75;;;5.00;;
62832;SDS011;48891;49.220;6.920;2023-09-19T12:37:08;7.00;;;5.43;;
62832;SDS011;48891;49.220;6.920;2023-09-19T12:39:35;7.03;;;5.28;;
62832;SDS011;48891;49.220;6.920;2023-09-19T12:42:01;7.40;;;5.57;;
62832;SDS011;48891;49.220;6.920;2023-09-19T12:44:27;7.43;;;5.28;;
62832;SDS011;48891;49.220;6.920;2023-09-19T12:46:53;6.32;;;4.78;;
62832;SDS011;48891;49.220;6.920;2023-09-19T12:49:18;6.60;;;5.00;;
62832;SDS011;48891;49.220;6.920;2023-09-19T12:51:45;7.22;;;5.13;;
62832;SDS011;48891;49.220;6.920;2023-09-19T12:54:11;6.20;;;5.33;;
62832;SDS011;48891;49.220;6.920;2023-09-19T12:56:40;8.00;;;5.45;;
62832;SDS011;48891;49.220;6.920;2023-09-19T12:59:06;6.85;;;5.18;;
62832;SDS011;48891;49.220;6.920;2023-09-19T13:01:31;6.78;;;5.35;;
62832;SDS011;48891;49.220;6.920;2023-09-19T13:04:13;7.20;;;5.35;;
62832;SDS011;48891;49.220;6.920;2023-09-19T13:06:46;7.57;;;5.60;;
62832;SDS011;48891;49.220;6.920;2023-09-19T13:09:12;7.03;;;5.35;;
62832;SDS011;48891;49.220;6.920;2023-09-19T13:11:38;7.95;;;6.07;;
62832;SDS011;48891;49.220;6.920;2023-09-19T13:19:38;6.85;;;5.60;;
62832;SDS011;48891;49.220;6.920;2023-09-19T13:25:10;6.88;;;5.20;;
62832;SDS011;48891;49.220;6.920;2023-09-19T13:27:38;7.70;;;6.00;;
62832;SDS011;48891;49.220;6.920;2023-09-19T13:30:03;8.27;;;6.23;;
62832;SDS011;48891;49.220;6.920;2023-09-19T13:32:29;7.43;;;5.97;;
62832;SDS011;48891;49.220;6.920;2023-09-19T13:34:54;7.55;;;5.78;;
62832;SDS011;48891;49.220;6.920;2023-09-19T13:37:19;8.00;;;6.40;;
62832;SDS011;48891;49.220;6.920;2023-09-19T13:39:44;8.25;;;6.10;;
62832;SDS011;48891;49.220;6.920;2023-09-19T13:42:10;7.63;;;6.20;;
62832;SDS011;48891;49.220;6.920;2023-09-19T13:44:35;7.45;;;6.18;;
62832;SDS011;48891;49.220;6.920;2023-09-19T13:47:00;8.47;;;6.77;;
62832;SDS011;48891;49.220;6.920;2023-09-19T13:49:25;8.13;;;6.43;;
62832;SDS011;48891;49.220;6.920;2023-09-19T13:51:51;8.30;;;6.83;;
62832;SDS011;48891;49.220;6.920;2023-09-19T13:54:16;9.13;;;6.47;;
62832;SDS011;48891;49.220;6.920;2023-09-19T13:56:41;9.15;;;7.10;;
62832;SDS011;48891;49.220;6.920;2023-09-19T13:59:07;8.20;;;6.57;;
62832;SDS011;48891;49.220;6.920;2023-09-19T14:01:32;8.70;;;7.25;;
62832;SDS011;48891;49.220;6.920;2023-09-19T14:03:57;8.57;;;6.67;;
62832;SDS011;48891;49.220;6.920;2023-09-19T14:06:23;9.40;;;7.35;;
62832;SDS011;48891;49.220;6.920;2023-09-19T14:08:49;8.73;;;7.25;;
62832;SDS011;48891;49.220;6.920;2023-09-19T14:11:14;9.37;;;7.63;;
62832;SDS011;48891;49.220;6.920;2023-09-19T14:13:39;9.17;;;7.57;;
62832;SDS011;48891;49.220;6.920;2023-09-19T14:16:05;9.90;;;7.47;;
62832;SDS011;48891;49.220;6.920;2023-09-19T14:18:31;9.43;;;7.45;;
62832;SDS011;48891;49.220;6.920;2023-09-19T14:20:57;10.10;;;7.90;;
62832;SDS011;48891;49.220;6.920;2023-09-19T14:23:22;9.02;;;7.68;;
62832;SDS011;48891;49.220;6.920;2023-09-19T14:25:47;10.20;;;8.00;;
62832;SDS011;48891;49.220;6.920;2023-09-19T14:28:13;10.05;;;8.63;;
62832;SDS011;48891;49.220;6.920;2023-09-19T14:30:38;10.30;;;8.53;;
62832;SDS011;48891;49.220;6.920;2023-09-19T14:33:04;10.40;;;8.37;;
62832;SDS011;48891;49.220;6.920;2023-09-19T14:35:29;9.77;;;8.23;;
62832;SDS011;48891;49.220;6.920;2023-09-19T14:37:55;10.38;;;8.43;;
62832;SDS011;48891;49.220;6.920;2023-09-19T14:40:20;11.05;;;8.10;;
62832;SDS011;48891;49.220;6.920;2023-09-19T14:42:45;11.00;;;8.90;;
62832;SDS011;48891;49.220;6.920;2023-09-19T14:45:11;10.65;;;8.30;;
62832;SDS011;48891;49.220;6.920;2023-09-19T14:47:36;10.37;;;9.00;;
62832;SDS011;48891;49.220;6.920;2023-09-19T14:50:02;9.50;;;8.50;;
62832;SDS011;48891;49.220;6.920;2023-09-19T14:52:28;11.73;;;9.50;;
62832;SDS011;48891;49.220;6.920;2023-09-19T14:54:53;11.13;;;9.50;;
62832;SDS011;48891;49.220;6.920;2023-09-19T14:57:18;11.40;;;9.43;;
62832;SDS011;48891;49.220;6.920;2023-09-19T14:59:43;11.85;;;9.57;;
62832;SDS011;48891;49.220;6.920;2023-09-19T15:02:09;11.03;;;9.03;;
62832;SDS011;48891;49.220;6.920;2023-09-19T15:04:34;10.97;;;9.33;;
62832;SDS011;48891;49.220;6.920;2023-09-19T15:06:59;10.80;;;9.13;;
62832;SDS011;48891;49.220;6.920;2023-09-19T15:09:25;11.23;;;9.73;;
62832;SDS011;48891;49.220;6.920;2023-09-19T15:11:50;11.70;;;9.27;;
62832;SDS011;48891;49.220;6.920;2023-09-19T15:14:15;10.57;;;8.90;;
62832;SDS011;48891;49.220;6.920;2023-09-19T15:16:41;10.77;;;9.30;;